Time;durP1;ratioP1;P1;durP2;ratioP2;P2;SDS_P1;SDS_P2;PMS_P1;PMS_P2;Temp;Humidity;BMP_temperature;BMP_pressure;BME280_temperature;BME280_humidity;BME280_pressure;Samples;Min_cycle;Max_cycle;Signal;HPM_P1;HPM_P2
2022/07/03 00:00:28;;;;;;;8.63;2.45;;;17.80;99.90;;;;;;5054411;28;20083;-78
2022/07/03 00:02:54;;;;;;;6.85;2.53;;;17.80;99.90;;;;;;5053862;28;20522;-78
2022/07/03 00:05:20;;;;;;;7.43;2.60;;;17.80;99.90;;;;;;5037536;28;20275;-78
2022/07/03 00:07:45;;;;;;;8.50;2.38;;;17.80;99.90;;;;;;5070432;28;20098;-78
2022/07/03 00:10:11;;;;;;;7.32;2.53;;;17.80;99.90;;;;;;5037546;28;20037;-78
2022/07/03 00:12:37;;;;;;;8.07;3.17;;;17.80;99.90;;;;;;5037553;28;20083;-77
2022/07/03 00:15:03;;;;;;;7.10;2.80;;;17.70;99.90;;;;;;5053879;28;20037;-78
2022/07/03 00:17:29;;;;;;;8.68;3.00;;;17.70;99.90;;;;;;5036991;28;20047;-78
2022/07/03 00:19:55;;;;;;;7.60;2.95;;;17.70;99.90;;;;;;5036969;28;20056;-78
2022/07/03 00:22:25;;;;;;;7.03;2.78;;;17.60;99.90;;;;;;5070288;28;20041;-78
2022/07/03 00:24:52;;;;;;;5.93;2.55;;;17.60;99.90;;;;;;5037433;28;20047;-78
2022/07/03 00:27:21;;;;;;;7.72;2.65;;;17.60;99.90;;;;;;5053962;28;20071;-78
2022/07/03 00:29:49;;;;;;;8.40;2.65;;;17.60;99.90;;;;;;5067890;28;20094;-78
2022/07/03 00:32:21;;;;;;;8.30;2.80;;;17.50;99.90;;;;;;5049093;28;20124;-79
2022/07/03 00:34:50;;;;;;;7.38;2.58;;;17.50;99.90;;;;;;5055212;28;20112;-78
2022/07/03 00:37:16;;;;;;;7.53;2.58;;;17.50;99.90;;;;;;5033649;28;20072;-78
2022/07/03 00:39:43;;;;;;;7.32;2.92;;;17.40;99.90;;;;;;5030327;28;20074;-78
2022/07/03 00:42:11;;;;;;;8.90;2.90;;;17.40;99.90;;;;;;5040542;28;20048;-78
2022/07/03 00:44:52;;;;;;;8.27;3.00;;;17.30;99.90;;;;;;5050402;28;20048;-78
2022/07/03 00:47:24;;;;;;;8.25;2.38;;;17.40;99.90;;;;;;5049726;28;20032;-78
2022/07/03 00:49:55;;;;;;;8.45;2.88;;;17.30;99.90;;;;;;5033444;28;20115;-78
2022/07/03 00:52:22;;;;;;;7.53;2.60;;;17.30;99.90;;;;;;5033206;28;20037;-78
2022/07/03 00:54:56;;;;;;;8.07;3.20;;;17.20;99.90;;;;;;5047031;28;20148;-78
2022/07/03 00:57:24;;;;;;;9.32;2.88;;;17.20;99.90;;;;;;5068415;28;20110;-78
2022/07/03 00:59:50;;;;;;;9.27;3.25;;;17.10;99.90;;;;;;5036427;28;20044;-78
2022/07/03 01:02:38;;;;;;;8.30;2.97;;;17.00;99.90;;;;;;5019264;28;20052;-78
2022/07/03 01:05:19;;;;;;;7.22;2.80;;;17.00;99.90;;;;;;5069450;28;20036;-78
2022/07/03 01:08:11;;;;;;;9.85;3.17;;;17.00;99.90;;;;;;5052226;28;20032;-78
2022/07/03 01:10:49;;;;;;;9.73;3.22;;;16.90;99.90;;;;;;5048645;28;20049;-78
2022/07/03 01:13:31;;;;;;;8.35;3.20;;;16.90;99.90;;;;;;5033029;28;20037;-78
2022/07/03 01:16:15;;;;;;;9.43;3.10;;;16.80;99.90;;;;;;5032743;28;20127;-78
2022/07/03 01:18:48;;;;;;;9.52;3.17;;;16.80;99.90;;;;;;5032886;28;20069;-78
2022/07/03 01:21:33;;;;;;;7.40;3.03;;;16.70;99.90;;;;;;5032232;28;20052;-78
2022/07/03 01:24:14;;;;;;;7.85;2.97;;;16.70;99.90;;;;;;5049063;28;20158;-78
2022/07/03 01:26:45;;;;;;;9.45;3.10;;;16.70;99.90;;;;;;5068853;28;20037;-78
2022/07/03 01:29:18;;;;;;;7.47;3.13;;;16.60;99.90;;;;;;5069640;28;20036;-78
2022/07/03 01:31:45;;;;;;;;;;;16.60;99.90;;;;;;5052438;28;20140;-78
2022/07/03 01:34:16;;;;;;;7.32;2.80;;;16.50;99.90;;;;;;5063947;28;19916;-78
2022/07/03 01:36:43;;;;;;;7.70;2.95;;;16.50;99.90;;;;;;5032034;28;20051;-78
2022/07/03 01:39:11;;;;;;;8.95;3.40;;;16.50;99.90;;;;;;5048294;28;20064;-77
2022/07/03 01:41:37;;;;;;;8.18;3.45;;;16.40;99.90;;;;;;5032057;28;20128;-78
2022/07/03 01:44:04;;;;;;;8.77;3.45;;;16.40;99.90;;;;;;5032117;28;20521;-78
2022/07/03 01:46:32;;;;;;;7.15;3.10;;;16.40;99.90;;;;;;5032060;28;20052;-77
2022/07/03 01:48:59;;;;;;;7.70;3.30;;;16.30;99.90;;;;;;5016185;28;20095;-77
2022/07/03 01:51:26;;;;;;;8.00;3.78;;;16.30;99.90;;;;;;5048546;28;20071;-77
2022/07/03 01:53:53;;;;;;;8.25;3.35;;;16.30;99.90;;;;;;5037696;28;20037;-78
2022/07/03 01:56:21;;;;;;;7.22;3.17;;;16.30;99.90;;;;;;5051531;28;20064;-78
2022/07/03 01:58:47;;;;;;;9.98;3.60;;;16.30;99.90;;;;;;5052226;28;20154;-78
2022/07/03 02:01:22;;;;;;;8.10;3.60;;;16.20;99.90;;;;;;5051700;28;20036;-77
2022/07/03 02:04:09;;;;;;;7.53;3.28;;;16.20;99.90;;;;;;5051748;28;20119;-77
2022/07/03 02:07:04;;;;;;;8.13;3.47;;;16.20;99.90;;;;;;5051137;28;20413;-78
2022/07/03 02:10:11;;;;;;;8.30;3.50;;;16.10;99.90;;;;;;5041796;28;20048;-77
2022/07/03 02:12:42;;;;;;;10.70;3.60;;;16.10;99.90;;;;;;4978999;28;20539;-77
2022/07/03 02:15:10;;;;;;;8.32;3.40;;;16.00;99.90;;;;;;5037851;28;20049;-78
2022/07/03 02:17:45;;;;;;;9.23;3.50;;;16.00;99.90;;;;;;5031526;28;20045;-77
2022/07/03 02:20:12;;;;;;;8.00;3.40;;;16.00;99.90;;;;;;5047998;28;20059;-77
2022/07/03 02:22:42;;;;;;;8.55;3.40;;;15.90;99.90;;;;;;5031348;28;20049;-78
2022/07/03 02:25:17;;;;;;;7.30;3.17;;;15.90;99.90;;;;;;5031565;28;20041;-77
2022/07/03 02:27:48;;;;;;;10.40;3.50;;;15.90;99.90;;;;;;5015853;28;20044;-78
2022/07/03 02:30:16;;;;;;;7.30;3.28;;;15.90;99.90;;;;;;5048026;28;20036;-78
2022/07/03 02:32:50;;;;;;;8.18;3.70;;;15.90;99.90;;;;;;5057836;28;20036;-78
2022/07/03 02:35:24;;;;;;;9.43;3.78;;;15.90;99.90;;;;;;5051135;28;20115;-77
2022/07/03 02:38:00;;;;;;;9.07;3.65;;;15.90;99.90;;;;;;5050957;28;20048;-77
2022/07/03 02:40:35;;;;;;;9.13;3.72;;;15.90;99.90;;;;;;5045086;28;20491;-77
2022/07/03 02:43:01;;;;;;;8.30;3.13;;;15.80;99.90;;;;;;5047709;28;20042;-77
2022/07/03 02:46:48;;;;;;;8.90;3.90;;;15.80;99.90;;;;;;5031090;28;20102;-77
2022/07/03 02:48:54;;;;;;;9.70;3.80;;;15.80;99.90;;;;;;5054229;28;20098;-78
2022/07/03 02:51:23;;;;;;;11.52;4.22;;;15.80;99.90;;;;;;5047294;28;20041;-78
2022/07/03 02:54:04;;;;;;;10.43;3.95;;;15.80;99.90;;;;;;5036142;28;20045;-78
2022/07/03 02:56:57;;;;;;;9.25;3.90;;;15.80;99.90;;;;;;5066991;28;20059;-77
2022/07/03 02:59:38;;;;;;;9.00;4.00;;;15.80;99.90;;;;;;5067396;28;20081;-77
2022/07/03 03:02:13;;;;;;;9.38;3.80;;;15.80;99.90;;;;;;5050445;28;20055;-78
2022/07/03 03:04:43;;;;;;;9.95;4.32;;;15.80;99.90;;;;;;5067452;28;20518;-77
2022/07/03 03:07:14;;;;;;;8.80;4.35;;;15.70;99.90;;;;;;5049989;28;20068;-77
2022/07/03 03:09:45;;;;;;;8.00;4.38;;;15.80;99.90;;;;;;5052498;28;20037;-77
2022/07/03 03:12:12;;;;;;;9.52;4.13;;;15.80;99.90;;;;;;5014293;28;20050;-78
2022/07/03 03:14:41;;;;;;;8.77;4.05;;;15.80;99.90;;;;;;5030579;28;20071;-78
2022/07/03 03:17:16;;;;;;;8.73;3.70;;;15.70;99.90;;;;;;5030483;28;20045;-78
2022/07/03 03:19:46;;;;;;;9.95;4.03;;;15.80;99.90;;;;;;5046245;28;20430;-78
2022/07/03 03:22:24;;;;;;;9.25;3.97;;;15.80;99.90;;;;;;5046603;28;20041;-77
2022/07/03 03:24:50;;;;;;;8.70;3.65;;;15.80;99.90;;;;;;5030907;28;20505;-78
2022/07/03 03:27:17;;;;;;;8.50;3.80;;;15.80;99.90;;;;;;5013571;28;20037;-78
2022/07/03 03:29:43;;;;;;;10.10;4.20;;;15.80;99.90;;;;;;5030511;28;20033;-78
2022/07/03 03:32:10;;;;;;;8.27;3.60;;;15.80;99.90;;;;;;5055942;28;20037;-78
2022/07/03 03:34:36;;;;;;;9.48;3.63;;;16.60;99.90;;;;;;5050753;28;20379;-78
2022/07/03 03:37:02;;;;;;;9.77;3.88;;;15.80;99.90;;;;;;5033405;28;20202;-77
2022/07/03 03:39:28;;;;;;;8.45;3.70;;;15.80;99.90;;;;;;5035266;28;20146;-78
2022/07/03 03:41:54;;;;;;;9.23;4.00;;;15.80;99.90;;;;;;5046680;28;20045;-78
2022/07/03 03:44:20;;;;;;;8.32;3.78;;;15.80;99.90;;;;;;4998069;28;21054;-77
2022/07/03 03:46:45;;;;;;;9.52;4.05;;;15.80;99.90;;;;;;5030165;28;20044;-77
2022/07/03 03:49:11;;;;;;;8.68;4.10;;;15.80;99.90;;;;;;5030763;28;20059;-77
2022/07/03 03:51:38;;;;;;;9.68;4.40;;;15.80;99.90;;;;;;5030094;28;20053;-77
2022/07/03 03:54:04;;;;;;;9.60;4.82;;;15.90;99.90;;;;;;5037993;28;20037;-77
2022/07/03 03:56:30;;;;;;;9.70;4.28;;;15.90;99.90;;;;;;5013709;28;20122;-78
2022/07/03 03:58:56;;;;;;;9.73;4.50;;;15.90;99.90;;;;;;5042878;28;20033;-78
2022/07/03 04:01:21;;;;;;;10.23;4.20;;;15.90;99.90;;;;;;5049923;28;20505;-78
2022/07/03 04:03:47;;;;;;;9.90;4.65;;;16.00;99.90;;;;;;5050208;28;20564;-78
2022/07/03 04:06:13;;;;;;;8.40;4.22;;;16.00;99.90;;;;;;5049404;28;20052;-78
2022/07/03 04:08:39;;;;;;;9.75;4.30;;;16.00;99.90;;;;;;5039228;28;20040;-78
2022/07/03 04:11:04;;;;;;;8.95;4.40;;;15.90;99.90;;;;;;5029955;28;20048;-77
2022/07/03 04:13:30;;;;;;;9.25;3.78;;;16.00;99.90;;;;;;5030403;28;20036;-77
2022/07/03 04:15:57;;;;;;;9.38;3.97;;;15.90;99.90;;;;;;5013366;28;20049;-78
2022/07/03 04:18:23;;;;;;;8.13;3.97;;;15.90;99.90;;;;;;5029977;28;20045;-78
2022/07/03 04:20:48;;;;;;;8.18;3.80;;;15.90;99.90;;;;;;5029755;28;20098;-78
2022/07/03 04:23:14;;;;;;;9.05;3.90;;;15.90;99.90;;;;;;5013908;28;20040;-77
2022/07/03 04:25:41;;;;;;;9.52;4.13;;;15.90;99.90;;;;;;5013763;28;20083;-78
2022/07/03 04:28:07;;;;;;;9.70;4.07;;;15.90;99.90;;;;;;5029914;28;20041;-80
2022/07/03 04:30:32;;;;;;;8.05;3.78;;;15.90;99.90;;;;;;5015712;28;20045;-78
2022/07/03 04:32:58;;;;;;;9.77;3.65;;;15.90;99.90;;;;;;5069978;28;20046;-77
2022/07/03 04:35:24;;;;;;;9.02;3.65;;;16.00;99.90;;;;;;5037352;28;20048;-77
2022/07/03 04:37:49;;;;;;;11.50;4.00;;;16.00;99.90;;;;;;5053190;28;20527;-77
2022/07/03 04:40:15;;;;;;;9.13;3.85;;;16.10;99.90;;;;;;5037108;28;20074;-77
2022/07/03 04:42:41;;;;;;;7.75;3.88;;;16.10;99.90;;;;;;5053168;28;20540;-78
2022/07/03 04:45:08;;;;;;;7.85;3.85;;;16.30;99.90;;;;;;5037117;28;20037;-77
2022/07/03 04:47:34;;;;;;;10.95;3.67;;;16.40;99.90;;;;;;5066462;28;20059;-78
2022/07/03 04:49:59;;;;;;;8.18;3.78;;;16.50;99.90;;;;;;5044779;28;20040;-78
2022/07/03 04:52:25;;;;;;;8.35;3.67;;;16.50;99.90;;;;;;5069289;28;20040;-78
2022/07/03 04:54:51;;;;;;;8.90;4.05;;;16.60;99.90;;;;;;5053610;28;20051;-77
2022/07/03 04:57:17;;;;;;;8.57;3.90;;;16.70;99.90;;;;;;5053045;28;20480;-78
2022/07/03 04:59:42;;;;;;;9.23;3.50;;;16.70;99.90;;;;;;5069873;28;20040;-78
2022/07/03 05:02:08;;;;;;;8.55;3.78;;;16.80;99.90;;;;;;5036060;28;20051;-78
2022/07/03 05:04:34;;;;;;;10.05;3.70;;;16.70;99.90;;;;;;5036696;28;20047;-78
2022/07/03 05:07:00;;;;;;;9.82;3.50;;;16.70;99.90;;;;;;5052602;28;20123;-78
2022/07/03 05:09:26;;;;;;;10.55;3.80;;;16.70;99.90;;;;;;5028367;28;20040;-78
2022/07/03 05:11:51;;;;;;;9.93;3.85;;;16.70;99.90;;;;;;5032541;28;20259;-77
2022/07/03 05:14:17;;;;;;;8.38;3.70;;;16.80;99.90;;;;;;5016924;28;20045;-77
2022/07/03 05:16:43;;;;;;;8.00;3.40;;;17.00;99.90;;;;;;5049330;28;20384;-78
2022/07/03 05:19:09;;;;;;;8.38;3.50;;;17.00;99.90;;;;;;5020337;28;20055;-77
2022/07/03 05:21:34;;;;;;;8.52;3.55;;;17.10;99.90;;;;;;5049005;28;20079;-78
2022/07/03 05:24:00;;;;;;;10.07;3.95;;;17.20;99.90;;;;;;5032577;28;20076;-78
2022/07/03 05:26:26;;;;;;;8.93;3.38;;;17.30;99.90;;;;;;5032289;28;20286;-78
2022/07/03 05:28:52;;;;;;;10.75;3.60;;;17.30;99.90;;;;;;5016482;28;20037;-77
2022/07/03 05:31:18;;;;;;;7.70;3.60;;;17.30;99.90;;;;;;5059509;28;20045;-77
2022/07/03 05:33:43;;;;;;;7.80;3.40;;;17.40;99.90;;;;;;5069132;28;20040;-78
2022/07/03 05:36:09;;;;;;;7.85;3.20;;;17.50;99.90;;;;;;5019314;28;20067;-77
2022/07/03 05:41:19;;;;;;;7.65;3.10;;;17.80;99.90;;;;;;5034297;28;20503;-78
2022/07/03 05:43:45;;;;;;;7.28;3.20;;;17.90;99.90;;;;;;5032014;28;20099;-77
2022/07/03 05:46:11;;;;;;;7.68;3.28;;;17.90;99.90;;;;;;5048774;28;20221;-78
2022/07/03 05:48:36;;;;;;;7.95;3.10;;;18.00;99.90;;;;;;5049097;28;20132;-77
2022/07/03 05:51:02;;;;;;;7.65;3.08;;;18.10;99.90;;;;;;5041777;28;20037;-78
2022/07/03 05:53:28;;;;;;;8.60;3.15;;;18.30;99.90;;;;;;5035888;28;20033;-78
2022/07/03 05:55:55;;;;;;;8.13;2.80;;;18.50;99.90;;;;;;5068234;28;20494;-78
2022/07/03 05:58:20;;;;;;;8.95;2.88;;;18.70;99.90;;;;;;5051984;28;20044;-78
2022/07/03 06:00:46;;;;;;;7.60;2.85;;;18.70;99.90;;;;;;5068301;28;20048;-78
2022/07/03 06:03:12;;;;;;;7.15;2.70;;;18.80;99.90;;;;;;5052030;28;20044;-77
2022/07/03 06:05:38;;;;;;;6.25;2.20;;;18.80;99.90;;;;;;5035292;28;20036;-78
2022/07/03 06:08:04;;;;;;;7.68;2.33;;;18.90;99.90;;;;;;5035084;28;20040;-78
2022/07/03 06:10:30;;;;;;;7.72;2.45;;;18.80;99.90;;;;;;5052160;28;20279;-77
2022/07/03 06:12:56;;;;;;;5.70;2.33;;;18.80;99.90;;;;;;5055696;28;20041;-78
2022/07/03 06:15:22;;;;;;;10.50;2.65;;;18.80;99.90;;;;;;4999005;28;20041;-78
2022/07/03 06:17:48;;;;;;;6.68;2.10;;;19.00;99.90;;;;;;5048102;28;20576;-78
2022/07/03 06:20:14;;;;;;;6.63;2.40;;;19.10;99.90;;;;;;5048205;28;20057;-77
2022/07/03 06:22:40;;;;;;;5.97;2.17;;;19.30;99.90;;;;;;5047870;28;20124;-77
2022/07/03 06:25:07;;;;;;;7.03;2.30;;;19.50;99.90;;;;;;5048553;28;20049;-78
2022/07/03 06:27:33;;;;;;;6.68;1.98;;;19.50;99.90;;;;;;5014929;28;20037;-78
2022/07/03 06:29:59;;;;;;;4.65;1.80;;;19.70;99.90;;;;;;5051263;28;20120;-78
2022/07/03 06:32:25;;;;;;;6.32;1.85;;;19.80;99.90;;;;;;5068313;28;20124;-78
2022/07/03 06:34:52;;;;;;;6.38;1.67;;;19.90;99.90;;;;;;5051504;28;20036;-78
2022/07/03 06:37:18;;;;;;;4.28;1.50;;;20.00;99.90;;;;;;5042297;28;20044;-77
2022/07/03 06:39:44;;;;;;;3.47;1.50;;;20.10;99.90;;;;;;5015332;28;20423;-78
2022/07/03 06:42:10;;;;;;;4.63;1.50;;;20.20;99.90;;;;;;5031084;28;20049;-78
2022/07/03 06:44:36;;;;;;;5.13;1.73;;;20.30;99.90;;;;;;5031353;28;20041;-78
2022/07/03 06:47:04;;;;;;;4.80;1.80;;;20.40;99.90;;;;;;4998265;28;20037;-78
2022/07/03 06:49:33;;;;;;;5.10;1.75;;;20.50;99.90;;;;;;5036188;28;20029;-78
2022/07/03 06:51:59;;;;;;;4.68;1.60;;;20.70;99.90;;;;;;5014333;28;20041;-78
2022/07/03 06:54:25;;;;;;;5.97;1.52;;;20.80;99.90;;;;;;5041387;28;20037;-79
2022/07/03 06:56:50;;;;;;;4.63;1.40;;;21.00;99.90;;;;;;5050739;28;20037;-78
2022/07/03 06:59:16;;;;;;;4.85;1.50;;;21.20;99.90;;;;;;5017851;28;20121;-78
2022/07/03 07:01:42;;;;;;;4.30;1.40;;;21.50;99.90;;;;;;5050686;28;20044;-77
2022/07/03 07:04:08;;;;;;;4.55;1.50;;;21.50;99.90;;;;;;5050739;28;20135;-79
2022/07/03 07:06:33;;;;;;;5.63;1.50;;;21.50;99.90;;;;;;5050331;28;20047;-77
2022/07/03 07:08:59;;;;;;;4.45;1.45;;;21.60;99.90;;;;;;5023236;28;20079;-78
2022/07/03 07:11:25;;;;;;;4.85;1.35;;;21.40;99.90;;;;;;5047078;28;20041;-78
2022/07/03 07:13:51;;;;;;;4.28;1.63;;;21.20;99.90;;;;;;5014434;28;20037;-77
2022/07/03 07:16:16;;;;;;;3.45;1.50;;;21.00;99.90;;;;;;5030442;28;20044;-78
2022/07/03 07:18:43;;;;;;;5.40;1.52;;;20.80;99.90;;;;;;5030510;28;20060;-77
2022/07/03 07:21:10;;;;;;;4.15;1.58;;;20.70;99.90;;;;;;5016422;28;20049;-78
2022/07/03 07:23:36;;;;;;;4.72;1.50;;;20.60;99.90;;;;;;5050648;28;20124;-78
2022/07/03 07:26:02;;;;;;;4.97;1.50;;;20.60;99.90;;;;;;5033494;28;20089;-78
2022/07/03 07:28:28;;;;;;;5.35;1.65;;;20.70;99.90;;;;;;5067320;28;20033;-78
2022/07/03 07:30:56;;;;;;;6.07;1.70;;;20.80;99.90;;;;;;5065715;28;20072;-78
2022/07/03 07:33:22;;;;;;;3.80;1.50;;;21.00;99.90;;;;;;4998557;28;20154;-78
2022/07/03 07:35:48;;;;;;;5.55;1.70;;;21.10;99.90;;;;;;5030060;28;20466;-78
2022/07/03 07:38:13;;;;;;;7.15;1.63;;;21.00;99.90;;;;;;5038389;28;20063;-79
2022/07/03 07:40:39;;;;;;;7.07;1.80;;;21.00;99.90;;;;;;5030326;28;20037;-78
2022/07/03 07:43:05;;;;;;;4.40;1.60;;;20.90;99.90;;;;;;5046751;28;20128;-78
2022/07/03 07:45:31;;;;;;;6.03;1.70;;;20.80;99.90;;;;;;5014334;28;20041;-79
2022/07/03 07:47:57;;;;;;;4.90;1.60;;;20.70;99.90;;;;;;5030042;28;20037;-78
2022/07/03 07:50:22;;;;;;;6.05;1.65;;;20.70;99.90;;;;;;5030407;28;20032;-78
2022/07/03 07:52:48;;;;;;;4.00;1.40;;;20.80;99.90;;;;;;5046773;28;20048;-79
2022/07/03 07:55:14;;;;;;;5.30;1.67;;;20.90;99.90;;;;;;5047488;28;20041;-78
2022/07/03 07:57:40;;;;;;;4.57;1.55;;;21.00;99.90;;;;;;5033320;28;20044;-79
2022/07/03 08:00:12;;;;;;;5.70;1.60;;;21.20;99.90;;;;;;5050397;28;20136;-78
2022/07/03 08:05:35;;;;;;;5.88;1.67;;;21.60;99.90;;;;;;5068112;28;20498;-78
2022/07/03 08:08:02;;;;;;;3.95;1.63;;;21.60;99.90;;;;;;5046249;28;20280;-78
2022/07/03 08:10:28;;;;;;;3.75;1.52;;;21.70;99.90;;;;;;5034141;28;20041;-78
2022/07/03 08:12:53;;;;;;;3.90;1.50;;;21.90;99.90;;;;;;5050776;28;20041;-77
2022/07/03 08:15:19;;;;;;;5.65;1.60;;;22.10;99.90;;;;;;5050759;28;20372;-78
2022/07/03 08:17:45;;;;;;;5.25;1.70;;;22.10;99.90;;;;;;5033929;28;20048;-78
2022/07/03 08:20:11;;;;;;;4.13;1.50;;;22.10;99.90;;;;;;5017704;28;20500;-78
2022/07/03 08:22:36;;;;;;;6.05;1.50;;;22.00;99.90;;;;;;5001016;28;20052;-78
2022/07/03 08:25:02;;;;;;;4.28;1.50;;;22.00;99.90;;;;;;5034194;28;20478;-78
2022/07/03 08:27:28;;;;;;;5.82;1.50;;;22.10;99.90;;;;;;5033867;28;20029;-78
2022/07/03 08:29:53;;;;;;;5.38;1.40;;;22.20;99.90;;;;;;5034798;28;20404;-78
2022/07/03 08:32:19;;;;;;;3.85;1.25;;;22.30;99.90;;;;;;5050235;28;20049;-77
2022/07/03 08:34:45;;;;;;;5.50;1.40;;;22.30;99.90;;;;;;5054258;28;20033;-78
2022/07/03 08:37:11;;;;;;;4.78;1.58;;;22.40;99.90;;;;;;5018608;28;20089;-78
2022/07/03 08:39:37;;;;;;;4.60;1.30;;;22.40;99.90;;;;;;5022569;28;20060;-78
2022/07/03 08:42:04;;;;;;;4.40;1.40;;;22.50;99.90;;;;;;5033445;28;20504;-78
2022/07/03 08:44:31;;;;;;;6.13;1.50;;;22.60;99.90;;;;;;5017652;28;20158;-77
2022/07/03 08:46:59;;;;;;;4.28;1.35;;;22.60;99.90;;;;;;5033730;28;20088;-78
2022/07/03 08:49:25;;;;;;;4.68;1.30;;;22.70;99.90;;;;;;5061937;28;20043;-78
2022/07/03 08:51:53;;;;;;;5.07;1.42;;;22.70;99.90;;;;;;5049782;28;20044;-78
2022/07/03 08:54:18;;;;;;;4.90;1.45;;;22.70;99.90;;;;;;5043016;28;20063;-77
2022/07/03 08:56:46;;;;;;;4.22;1.40;;;22.80;99.90;;;;;;5053091;28;20045;-78
2022/07/03 08:59:13;;;;;;;4.22;1.40;;;22.80;99.90;;;;;;5053338;28;20090;-78
2022/07/03 09:01:41;;;;;;;4.22;1.40;;;22.80;99.90;;;;;;5036267;28;20070;-78
2022/07/03 09:04:15;;;;;;;5.60;1.65;;;22.70;99.90;;;;;;5053673;28;20048;-78
2022/07/03 09:06:42;;;;;;;5.05;1.38;;;22.60;99.90;;;;;;5053241;28;20036;-78
2022/07/03 09:09:11;;;;;;;4.47;1.58;;;22.70;99.90;;;;;;5047037;28;20190;-78
2022/07/03 09:11:38;;;;;;;5.18;1.42;;;22.60;99.90;;;;;;5032787;28;20196;-78
2022/07/03 09:14:06;;;;;;;3.22;1.30;;;22.60;99.90;;;;;;5016860;28;20127;-78
2022/07/03 09:16:36;;;;;;;4.28;1.50;;;22.50;99.90;;;;;;5032212;28;20118;-78
2022/07/03 09:19:05;;;;;;;6.30;1.75;;;22.60;99.90;;;;;;5032816;28;20476;-77
2022/07/03 09:21:38;;;;;;;5.20;1.60;;;22.60;99.90;;;;;;5016675;28;20051;-78
2022/07/03 09:24:06;;;;;;;4.95;1.42;;;22.80;99.90;;;;;;5032745;28;20338;-78
2022/07/03 09:26:32;;;;;;;4.35;1.35;;;22.90;99.90;;;;;;5049425;28;20037;-78
2022/07/03 09:28:58;;;;;;;5.40;1.50;;;22.80;99.90;;;;;;5033239;28;20041;-78
2022/07/03 09:31:26;;;;;;;3.83;1.35;;;22.90;99.90;;;;;;4999765;28;20071;-79
2022/07/03 09:34:04;;;;;;;3.55;1.25;;;23.20;99.90;;;;;;5032653;28;20041;-78
2022/07/03 09:36:40;;;;;;;4.78;1.30;;;23.40;99.90;;;;;;5032978;28;20517;-78
2022/07/03 09:39:29;;;;;;;2.92;1.00;;;23.60;99.90;;;;;;5052671;28;20037;-78
2022/07/03 09:42:11;;;;;;;4.65;1.00;;;23.60;99.90;;;;;;5051835;28;20048;-78
2022/07/03 09:44:38;;;;;;;4.75;1.30;;;23.70;99.90;;;;;;5032649;28;20198;-78
2022/07/03 09:47:13;;;;;;;4.38;1.20;;;23.80;99.90;;;;;;5032151;28;20052;-78
2022/07/03 09:49:58;;;;;;;5.25;1.25;;;23.90;99.90;;;;;;5032840;28;20057;-78
2022/07/03 09:52:36;;;;;;;2.33;0.90;;;23.90;99.90;;;;;;5057029;28;20112;-78
2022/07/03 09:55:10;;;;;;;3.65;1.20;;;23.90;99.90;;;;;;5050188;28;20267;-79
2022/07/03 09:57:38;;;;;;;2.47;1.02;;;24.00;99.90;;;;;;5048975;28;20059;-79
2022/07/03 10:00:34;;;;;;;4.07;1.05;;;24.10;99.90;;;;;;5032344;28;20041;-78
2022/07/03 10:03:12;;;;;;;3.63;1.20;;;24.10;99.90;;;;;;5036440;28;20088;-78
2022/07/03 10:05:42;;;;;;;4.55;1.10;;;24.20;99.90;;;;;;5016380;28;20122;-78
2022/07/03 10:08:11;;;;;;;2.10;0.88;;;24.20;99.90;;;;;;5036919;28;20073;-78
2022/07/03 10:10:39;;;;;;;2.45;1.00;;;24.10;99.90;;;;;;5048967;28;20048;-79
2022/07/03 10:13:05;;;;;;;3.17;1.08;;;24.10;99.90;;;;;;5015376;28;20120;-78
2022/07/03 10:15:35;;;;;;;4.05;1.30;;;24.10;99.90;;;;;;5048785;28;20322;-79
2022/07/03 10:18:04;;;;;;;3.30;1.20;;;24.10;99.90;;;;;;5048382;28;20162;-78
2022/07/03 10:20:33;;;;;;;4.40;1.30;;;24.30;99.90;;;;;;5048491;28;20106;-81
2022/07/03 10:22:59;;;;;;;3.80;1.23;;;24.40;99.90;;;;;;5048227;28;20045;-79
2022/07/03 10:25:25;;;;;;;5.65;1.33;;;24.40;99.90;;;;;;5032209;28;20056;-78
2022/07/03 10:27:51;;;;;;;3.70;1.15;;;24.40;99.90;;;;;;5031355;28;20490;-78
2022/07/03 10:30:22;;;;;;;3.95;1.30;;;24.30;99.90;;;;;;5015447;28;20403;-78
2022/07/03 10:32:51;;;;;;;2.97;1.02;;;24.20;99.90;;;;;;5047997;28;20255;-79
2022/07/03 10:35:33;;;;;;;2.88;0.95;;;24.10;99.90;;;;;;5031572;28;20054;-78
2022/07/03 10:38:02;;;;;;;1.15;0.80;;;24.10;99.90;;;;;;5047986;28;20121;-78
2022/07/03 10:46:21;;;;;;;3.10;1.00;;;24.10;99.90;;;;;;5047551;28;20080;-79
2022/07/03 10:49:06;;;;;;;3.88;1.13;;;24.40;99.90;;;;;;5034785;28;20041;-78
2022/07/03 10:52:00;;;;;;;4.75;1.20;;;24.60;99.90;;;;;;5031139;28;20041;-78
2022/07/03 10:54:28;;;;;;;2.42;1.10;;;24.80;99.90;;;;;;5058715;28;20596;-79
2022/07/03 10:57:02;;;;;;;3.88;1.05;;;24.90;99.90;;;;;;5067869;28;20067;-78
2022/07/03 10:59:46;;;;;;;2.95;1.10;;;24.70;99.90;;;;;;5051014;28;20045;-78
2022/07/03 11:02:35;;;;;;;2.63;1.00;;;24.70;99.90;;;;;;5051119;28;20093;-78
2022/07/03 11:05:03;;;;;;;2.20;0.90;;;24.90;99.90;;;;;;5067994;28;20040;-78
2022/07/03 11:07:29;;;;;;;3.25;1.17;;;24.90;99.90;;;;;;5051033;28;20062;-78
2022/07/03 11:10:12;;;;;;;4.15;1.10;;;25.10;99.90;;;;;;5038383;28;20040;-78
2022/07/03 11:12:56;;;;;;;1.73;0.70;;;25.20;99.90;;;;;;5050740;28;20124;-79
2022/07/03 11:15:37;;;;;;;1.67;0.70;;;25.50;99.90;;;;;;5068164;28;20128;-78
2022/07/03 11:20:52;;;;;;;2.35;1.10;;;25.10;99.90;;;;;;5047602;28;20052;-78
2022/07/03 11:23:27;;;;;;;2.47;1.00;;;25.10;99.90;;;;;;5024853;28;20048;-79
2022/07/03 11:25:53;;;;;;;2.75;1.02;;;25.10;99.90;;;;;;5050923;28;20064;-78
2022/07/03 11:28:30;;;;;;;4.10;1.17;;;25.30;99.90;;;;;;5051349;28;20040;-79
2022/07/03 11:31:09;;;;;;;2.65;1.10;;;25.40;99.90;;;;;;5047761;28;20082;-78
2022/07/03 11:33:43;;;;;;;4.18;1.20;;;25.60;99.90;;;;;;5030921;28;20507;-77
2022/07/03 11:36:30;;;;;;;3.70;0.90;;;25.80;99.90;;;;;;5047114;28;20055;-78
2022/07/03 11:38:57;;;;;;;3.65;1.10;;;25.90;99.90;;;;;;5030861;28;20037;-78
2022/07/03 11:41:28;;;;;;;3.78;1.30;;;26.00;99.90;;;;;;5046589;28;20048;-78
2022/07/03 11:43:58;;;;;;;4.00;1.27;;;25.90;99.90;;;;;;5047280;28;20183;-79
2022/07/03 11:46:26;;;;;;;2.83;1.25;;;25.80;99.90;;;;;;5047326;28;20671;-79
2022/07/03 11:49:25;;;;;;;6.10;1.40;;;25.80;99.90;;;;;;5015073;28;20041;-79
2022/07/03 11:51:58;;;;;;;5.15;1.45;;;25.70;99.90;;;;;;5008596;28;20098;-78
2022/07/03 11:54:25;;;;;;;2.88;1.30;;;25.50;99.90;;;;;;5057527;28;20528;-79
2022/07/03 11:56:50;;;;;;;5.78;1.40;;;25.10;99.90;;;;;;5050247;28;20048;-78
2022/07/03 11:59:17;;;;;;;3.83;1.30;;;24.60;99.90;;;;;;5050413;28;20040;-80
2022/07/03 12:01:43;;;;;;;4.68;1.30;;;24.50;99.90;;;;;;5066709;28;20120;-79
2022/07/03 12:04:17;;;;;;;5.85;1.48;;;24.30;99.90;;;;;;5067005;28;20170;-80
2022/07/03 12:06:45;;;;;;;3.55;1.20;;;24.60;99.90;;;;;;5050118;28;20047;-78
2022/07/03 12:09:21;;;;;;;3.40;1.25;;;24.90;99.90;;;;;;5046022;28;20037;-78
2022/07/03 12:12:04;;;;;;;4.53;1.40;;;24.90;99.90;;;;;;5029928;28;20040;-78
2022/07/03 12:14:51;;;;;;;6.78;1.60;;;24.60;99.90;;;;;;5054192;28;20044;-79
2022/07/03 12:17:19;;;;;;;6.43;1.63;;;24.40;99.90;;;;;;5066415;28;20074;-79
2022/07/03 12:20:06;;;;;;;3.85;1.30;;;24.10;99.90;;;;;;5066922;28;20400;-78
2022/07/03 12:22:35;;;;;;;3.47;1.38;;;23.80;99.90;;;;;;5049673;28;20085;-79
2022/07/03 12:25:07;;;;;;;6.53;1.50;;;23.80;99.90;;;;;;5067107;28;20059;-78
2022/07/03 12:27:35;;;;;;;7.50;1.85;;;23.90;99.90;;;;;;5066560;28;20036;-79
2022/07/03 12:30:01;;;;;;;5.60;1.65;;;24.00;99.90;;;;;;5050568;28;20047;-78
2022/07/03 12:32:28;;;;;;;6.57;1.80;;;24.00;99.90;;;;;;5033193;28;20500;-79
2022/07/03 12:34:54;;;;;;;5.20;1.50;;;24.00;99.90;;;;;;5038484;28;20123;-79
2022/07/03 12:37:34;;;;;;;6.18;1.55;;;24.20;99.90;;;;;;5029912;28;20076;-79
2022/07/03 12:40:00;;;;;;;5.57;1.42;;;24.50;99.90;;;;;;5046810;28;20049;-79
2022/07/03 12:42:26;;;;;;;6.43;1.60;;;24.80;99.90;;;;;;5029258;28;20114;-78
2022/07/03 12:44:59;;;;;;;7.95;1.70;;;24.90;99.90;;;;;;5014261;28;20125;-79
2022/07/03 12:47:27;;;;;;;7.00;1.58;;;25.20;99.90;;;;;;5029747;28;20391;-79
2022/07/03 12:50:01;;;;;;;5.70;1.50;;;25.30;99.90;;;;;;5014077;28;20140;-80
2022/07/03 12:52:32;;;;;;;6.97;1.85;;;25.30;99.90;;;;;;5032311;28;20045;-79
2022/07/03 12:54:59;;;;;;;5.78;1.40;;;25.50;99.90;;;;;;5048439;28;20442;-78
2022/07/03 13:00:16;;;;;;;5.72;1.45;;;25.50;99.90;;;;;;5055793;28;20041;-79
2022/07/03 13:02:46;;;;;;;6.28;1.70;;;25.10;99.90;;;;;;5043549;28;20048;-79
2022/07/03 13:05:15;;;;;;;6.03;1.83;;;24.80;99.90;;;;;;5050278;28;20049;-80
2022/07/03 13:07:41;;;;;;;7.13;1.58;;;24.60;99.90;;;;;;5037657;28;20097;-79
2022/07/03 13:10:08;;;;;;;4.53;1.50;;;24.50;99.90;;;;;;5054064;28;20074;-79
2022/07/03 13:12:34;;;;;;;5.03;1.48;;;24.50;99.90;;;;;;5033221;28;20156;-79
2022/07/03 13:15:00;;;;;;;4.45;1.40;;;24.40;99.90;;;;;;5016916;28;20472;-78